Terminal Aerodrome Forecast
Issued by NWS

Home | Current Version | Previous Version | Text Only | Print | Product List | Glossary On
Versions: 1 2 3 4 5 6 7 8 9 10 11 12 13 14 15 16 17
000
FTUS44 KHGX 241835 AAA
TAFLBX
TAF AMD
KLBX 241835Z 2419/2518 12009KT P6SM VCTS FEW040CB FEW050 SCT060
      TEMPO 2419/2421 -TSRA
     FM242100 17008KT P6SM SCT060 SCT250
     FM250200 19004KT P6SM SKC
     FM251200 VRB03KT P6SM SCT025 BKN250 PROB30 2512/2516 SHRA
     FM251600 18005KT P6SM VCTS BKN035CB OVC250=

USA.gov is the U.S. government's official web portal to all federal, state and local government web resources and services.